Impacts METAR Board INFO
IDs:

KFLL - Ft Lauderdale-Hollyw, FL, US

Updated at: 2258 UTC 21 Feb 2018
Potential Impact None Slight Moderate High
Time21/10Z 21/11Z 21/12Z 21/13Z 21/14Z 21/15Z 21/16Z 21/17Z 21/18Z 21/19Z 21/20Z 21/21Z 21/22Z
VIS 10 10 10 10 10 10 10 10 10 10
CIG 45 -- -- -- -- -- -- -- 49 --
CoverBKNSCTFEWFEWFEWFEWFEWSCTBKNSCT
FltCatVFRVFRVFRVFRVFRVFRVFRVFRVFRVFR
WX--------------------
WDir1001001101009090901109090
WSpd 16 17 17 16 17 17 19 19 16 15
WGst -- -- -- -- -- -- -- -- -- --
Raw hourly METARs



KFLL 211253Z 10016KT 10SM SCT020 BKN045 24/21 A3033 RMK AO2 SLP270 T02440211 $
KFLL 211353Z 10017KT 10SM FEW020 SCT045 26/21 A3035 RMK AO2 SLP276 T02560211
KFLL 211453Z COR 11017KT 10SM FEW020 FEW045 27/21 A3037 RMK AO2 SLP282 T02670206 53013
KFLL 211553Z 10016KT 10SM FEW020 27/21 A3037 RMK AO2 SLP284 T02720211
KFLL 211653Z 09017KT 10SM FEW025 27/22 A3035 RMK AO2 SLP278 T02720217
KFLL 211753Z 09017KT 10SM FEW025 27/22 A3033 RMK AO2 SLP271 T02720217 10278 20239 58012
KFLL 211853Z 09019KT 10SM FEW025 FEW045 27/21 A3032 RMK AO2 SLP265 T02720206
KFLL 211953Z 11019KT 10SM FEW026 SCT031 SCT040 27/22 A3031 RMK AO2 SLP261 T02670217
KFLL 212053Z 09016KT 10SM FEW024 SCT035 BKN049 27/21 A3029 RMK AO2 SLP257 T02670211 56013
KFLL 212153Z 09015KT 10SM SCT026 26/21 A3029 RMK AO2 SLP258 T02560206